Atwater, OH

12:45 AM EST on November 23, 2014 (GMT -0500)
The Gracie Field Area | Change Station
CLOSE
Current Station
Personal Weather Station
Location: Rootstown, OH
Elevation: 1220 ft
Nearby Weather Stations

Elev 1220 ft 41.08 °N, 81.22 °W | Updated 0 second ago

Overcast
Overcast
45.8 °F
Feels Like 44 °F
N
4.1
Wind Variable Wind from SW
Gusts 5.8 mph

Today
High -- | Low -- °F
--% Chance of Precip.
Yesterday
High -- | Low -- °F
Precip. -- in
7:21 AM 5:00 PM
New Moon, 1% visible
Pressure 30.06 in
Visibility 10.0 miles
Clouds Overcast 4100 ft
Windchill 44 °F
Dew Point 36 °F
Humidity 68%
Rainfall 0.00 in
Snow Depth Not available.
UV 0 out of 12
Pollen .10 out of 12
Air Quality Not available.
Flu Activity Not available.
METAR KPOV 230540Z AUTO 21005KT 10SM OVC041 08/M01 A3006 RMK AO2 T00821009

More Conditions Fewer Conditions

Pressure 30.06 in
Visibility 10.0 miles
Clouds Overcast 4100 ft
Windchill 44 °F
Dew Point 36 °F
Humidity 68%
Rainfall 0.00 in
Snow Depth Not available.
UV 0 out of 12
Pollen .10 out of 12
Air Quality Not available.
Flu Activity Not available.
METAR KPOV 230540Z AUTO 21005KT 10SM OVC041 08/M01 A3006 RMK AO2 T00821009

More Conditions Fewer Conditions

10-Day Weather Forecast

Almanac

Astronomy

Nov. 23, 2014 Rise Set
Actual Time
Civil Twilight
Nautical Twilight
Astronomical Twilight
Moon
Length of Visible Light
Length of Day
Tomorrow will be .
, % of the Moon is Illuminated

Today's Extremes

State Highs State Lows

Community

WunderPhotos

Upload Photos

1,773,017 photos uploaded!

WunderBlogs® & News

Nearby

Air Quality

  Air Quality AQ Index Pollutant
Not available.

Snow Depth

Station Depth Elevation

Earthquake Activity

City Distance Mag. Time & Date
Minimum magnitude displayed is 2.5.

Coastal Water Temperatures

Place Temperature

Nearby Weather Stations